createdAt,value
2019-03-31T00:02:08.681Z,8.40
2019-03-31T00:04:37.460Z,8.40
2019-03-31T00:07:06.398Z,8.40
2019-03-31T00:09:35.276Z,8.30
2019-03-31T00:12:04.085Z,8.30
2019-03-31T00:14:32.794Z,8.30
2019-03-31T00:17:01.630Z,8.40
2019-03-31T00:19:30.396Z,8.50
2019-03-31T00:21:59.255Z,8.50
2019-03-31T00:24:27.996Z,8.40
2019-03-31T00:26:56.653Z,8.40
2019-03-31T00:29:25.442Z,8.30
2019-03-31T00:31:54.220Z,8.10
2019-03-31T00:34:22.966Z,8.00
2019-03-31T00:36:54.007Z,8.00
2019-03-31T00:39:22.677Z,7.80
2019-03-31T00:41:52.538Z,7.80
2019-03-31T00:44:21.310Z,7.70
2019-03-31T00:46:50.282Z,7.60
2019-03-31T00:49:19.087Z,7.50
2019-03-31T00:51:47.774Z,7.40
2019-03-31T00:54:16.537Z,7.30
2019-03-31T00:56:45.290Z,7.30
2019-03-31T00:59:14.220Z,7.30
2019-03-31T01:01:44.947Z,7.30
2019-03-31T01:04:15.672Z,7.30
2019-03-31T01:06:45.468Z,7.40
2019-03-31T01:09:26.680Z,7.60
2019-03-31T01:11:59.048Z,7.70
2019-03-31T01:14:29.824Z,7.70
2019-03-31T01:17:00.618Z,7.70
2019-03-31T01:19:30.068Z,7.60
2019-03-31T01:21:58.811Z,7.60
2019-03-31T01:24:27.809Z,7.50
2019-03-31T01:26:56.614Z,7.40
2019-03-31T01:29:28.516Z,7.30
2019-03-31T01:31:57.476Z,7.30
2019-03-31T01:34:26.234Z,7.30
2019-03-31T01:36:55.132Z,7.30
2019-03-31T01:39:25.075Z,7.30
2019-03-31T01:41:53.727Z,7.20
2019-03-31T01:44:22.552Z,7.30
2019-03-31T01:46:51.261Z,7.20
2019-03-31T01:49:19.951Z,7.30
2019-03-31T01:51:48.651Z,7.40
2019-03-31T01:54:18.128Z,7.40
2019-03-31T01:56:46.795Z,7.40
2019-03-31T01:59:15.828Z,7.40
2019-03-31T02:01:48.490Z,7.30
2019-03-31T02:04:19.862Z,7.30
2019-03-31T02:06:48.610Z,7.20
2019-03-31T02:09:17.284Z,7.10
2019-03-31T02:11:46.056Z,7.10
2019-03-31T02:14:14.858Z,7.10
2019-03-31T02:16:43.478Z,7.00
2019-03-31T02:19:12.162Z,7.10
2019-03-31T02:21:40.971Z,7.20
2019-03-31T02:24:09.657Z,7.20
2019-03-31T02:26:38.421Z,7.10
2019-03-31T02:29:07.118Z,7.10
2019-03-31T02:31:35.813Z,7.10
2019-03-31T02:34:04.613Z,7.20
2019-03-31T02:36:33.161Z,7.20
2019-03-31T02:39:01.904Z,7.20
2019-03-31T02:41:30.859Z,7.20
2019-03-31T02:43:59.703Z,7.00
2019-03-31T02:46:28.395Z,7.00
2019-03-31T02:48:56.950Z,6.90
2019-03-31T02:51:26.155Z,6.70
2019-03-31T02:53:55.033Z,6.60
2019-03-31T02:56:24.453Z,6.60
2019-03-31T02:58:54.962Z,6.60
2019-03-31T03:01:26.197Z,6.60
2019-03-31T03:03:55.881Z,6.60
2019-03-31T03:06:27.593Z,6.60
2019-03-31T03:08:57.061Z,6.60
2019-03-31T03:11:28.535Z,6.60
2019-03-31T03:13:59.159Z,6.80
2019-03-31T03:16:27.853Z,6.80
2019-03-31T03:18:56.956Z,6.90
2019-03-31T03:21:25.696Z,6.90
2019-03-31T03:23:55.527Z,6.90
2019-03-31T03:26:24.262Z,7.00
2019-03-31T03:28:53.342Z,6.90
2019-03-31T03:31:22.006Z,6.80
2019-03-31T03:33:50.942Z,6.80
2019-03-31T03:36:19.663Z,6.70
2019-03-31T03:38:48.484Z,6.70
2019-03-31T03:41:17.448Z,6.70
2019-03-31T03:43:54.945Z,6.70
2019-03-31T03:46:16.814Z,6.80
2019-03-31T03:48:45.450Z,6.80
2019-03-31T03:51:14.225Z,6.80
2019-03-31T03:53:43.151Z,6.80
2019-03-31T03:56:11.891Z,6.80
2019-03-31T03:58:40.767Z,6.70
2019-03-31T04:01:13.914Z,6.70
2019-03-31T04:03:42.844Z,6.60
2019-03-31T04:06:11.509Z,6.60
2019-03-31T04:08:40.249Z,6.80
2019-03-31T04:11:15.155Z,6.80
2019-03-31T04:13:44.095Z,6.90
2019-03-31T04:16:12.772Z,6.90
2019-03-31T04:18:41.570Z,6.90
2019-03-31T04:21:10.302Z,6.80
2019-03-31T04:23:39.088Z,6.80
2019-03-31T04:26:07.762Z,6.80
2019-03-31T04:28:36.583Z,6.80
2019-03-31T04:31:05.445Z,6.90
2019-03-31T04:33:49.743Z,6.90
2019-03-31T04:36:05.030Z,7.00
2019-03-31T04:38:33.881Z,7.00
2019-03-31T04:41:02.625Z,6.90
2019-03-31T04:43:31.464Z,7.00
2019-03-31T04:46:00.162Z,7.00
2019-03-31T04:48:29.039Z,7.00
2019-03-31T04:50:57.743Z,7.00
2019-03-31T04:53:26.375Z,7.10
2019-03-31T04:55:55.253Z,7.20
2019-03-31T04:58:23.950Z,7.30
2019-03-31T05:00:52.591Z,7.30
2019-03-31T05:03:21.355Z,7.30
2019-03-31T05:05:50.085Z,7.40
2019-03-31T05:08:18.685Z,7.40
2019-03-31T05:10:47.411Z,7.50
2019-03-31T05:13:16.164Z,7.60
2019-03-31T05:15:45.046Z,7.70
2019-03-31T05:18:13.773Z,7.90
2019-03-31T05:20:42.493Z,8.20
2019-03-31T05:23:11.466Z,9.00
2019-03-31T05:25:40.043Z,10.30
2019-03-31T05:28:08.768Z,11.80
2019-03-31T05:30:37.368Z,13.20
2019-03-31T05:33:07.618Z,14.40
2019-03-31T05:35:36.291Z,15.40
2019-03-31T05:38:05.095Z,15.90
2019-03-31T05:40:33.914Z,16.00
2019-03-31T05:43:02.617Z,16.30
2019-03-31T05:45:31.389Z,16.60
2019-03-31T05:48:00.001Z,16.40
2019-03-31T05:50:28.683Z,16.80
2019-03-31T05:52:57.439Z,17.50
2019-03-31T05:55:26.232Z,18.50
2019-03-31T05:57:54.838Z,19.60
2019-03-31T06:00:32.878Z,20.20
2019-03-31T06:03:01.469Z,20.60
2019-03-31T06:05:30.222Z,21.20
2019-03-31T06:07:58.884Z,21.80
2019-03-31T06:10:28.135Z,21.80
2019-03-31T06:12:56.970Z,22.00
2019-03-31T06:15:25.718Z,22.30
2019-03-31T06:17:54.610Z,22.80
2019-03-31T06:20:23.334Z,23.20
2019-03-31T06:22:52.001Z,23.50
2019-03-31T06:25:20.623Z,23.30
2019-03-31T06:27:49.421Z,23.10
2019-03-31T06:30:18.129Z,23.50
2019-03-31T06:32:46.930Z,23.30
2019-03-31T06:35:15.700Z,23.50
2019-03-31T06:37:44.404Z,23.50
2019-03-31T06:40:13.218Z,23.80
2019-03-31T06:42:41.926Z,23.90
2019-03-31T06:45:12.156Z,23.80
2019-03-31T06:47:41.019Z,23.90
2019-03-31T06:50:10.393Z,24.00
2019-03-31T06:52:39.086Z,23.80
2019-03-31T06:55:08.724Z,24.30
2019-03-31T06:57:37.386Z,24.60
2019-03-31T07:00:08.088Z,24.60
2019-03-31T07:02:36.870Z,24.60
2019-03-31T07:05:07.432Z,24.60
2019-03-31T07:07:36.307Z,24.80
2019-03-31T07:10:07.521Z,24.80
2019-03-31T07:12:37.811Z,24.70
2019-03-31T07:15:09.784Z,25.00
2019-03-31T07:17:38.664Z,25.00
2019-03-31T07:20:09.206Z,24.70
2019-03-31T07:22:38.122Z,25.00
2019-03-31T07:25:08.586Z,25.40
2019-03-31T07:27:42.504Z,25.80
2019-03-31T07:30:19.583Z,25.50
2019-03-31T07:32:48.362Z,26.00
2019-03-31T07:35:20.589Z,24.40
2019-03-31T07:37:49.398Z,23.70
2019-03-31T07:40:22.599Z,23.00
2019-03-31T07:42:51.659Z,24.00
2019-03-31T07:45:20.426Z,24.70
2019-03-31T07:47:49.624Z,25.80
2019-03-31T07:50:28.267Z,26.50
2019-03-31T07:52:57.811Z,26.80
2019-03-31T07:55:29.734Z,26.30
2019-03-31T07:57:59.996Z,24.80
2019-03-31T08:00:28.725Z,24.10
2019-03-31T08:03:00.119Z,23.80
2019-03-31T08:05:33.359Z,23.10
2019-03-31T08:07:58.331Z,23.00
2019-03-31T08:10:27.094Z,22.40
2019-03-31T08:12:56.087Z,23.00
2019-03-31T08:15:25.104Z,24.40
2019-03-31T08:17:53.876Z,25.30
2019-03-31T08:20:22.688Z,26.30
2019-03-31T08:22:51.371Z,27.00
2019-03-31T08:25:21.965Z,27.00
2019-03-31T08:27:50.621Z,25.80
2019-03-31T08:30:19.772Z,25.50
2019-03-31T08:32:48.667Z,25.20
2019-03-31T08:35:20.135Z,25.80
2019-03-31T08:37:48.781Z,26.60
2019-03-31T08:40:18.174Z,26.00
2019-03-31T08:42:46.948Z,26.10
2019-03-31T08:45:16.163Z,26.80
2019-03-31T08:47:45.032Z,27.10
2019-03-31T08:50:14.159Z,27.90
2019-03-31T08:52:43.030Z,28.10
2019-03-31T08:55:16.080Z,28.00
2019-03-31T08:57:44.886Z,28.00
2019-03-31T09:00:17.027Z,28.10
2019-03-31T09:02:58.741Z,28.20
2019-03-31T09:05:34.574Z,28.60
2019-03-31T09:08:06.591Z,28.60
2019-03-31T09:10:37.975Z,27.50
2019-03-31T09:13:09.529Z,27.70
2019-03-31T09:15:44.576Z,26.90
2019-03-31T09:18:18.028Z,27.20
2019-03-31T09:20:47.162Z,27.50
2019-03-31T09:23:16.979Z,27.20
2019-03-31T09:25:49.872Z,27.50
2019-03-31T09:28:18.752Z,27.60
2019-03-31T09:30:53.791Z,27.30
2019-03-31T09:33:22.850Z,26.60
2019-03-31T09:35:54.740Z,26.10
2019-03-31T09:38:23.422Z,25.80
2019-03-31T09:40:52.133Z,25.70
2019-03-31T09:43:21.109Z,25.90
2019-03-31T09:45:49.828Z,25.90
2019-03-31T09:48:18.618Z,26.00
2019-03-31T09:50:47.391Z,26.20
2019-03-31T09:53:16.132Z,26.20
2019-03-31T09:55:44.809Z,26.50
2019-03-31T09:58:13.583Z,26.50
2019-03-31T10:00:51.010Z,25.60
2019-03-31T10:03:26.043Z,24.50
2019-03-31T10:06:04.434Z,24.00
2019-03-31T10:08:26.950Z,24.40
2019-03-31T10:10:55.699Z,24.80
2019-03-31T10:13:24.511Z,24.30
2019-03-31T10:15:53.368Z,23.40
2019-03-31T10:18:22.404Z,22.70
2019-03-31T10:20:52.802Z,22.20
2019-03-31T10:23:24.423Z,22.00
2019-03-31T10:25:53.099Z,21.80
2019-03-31T10:28:21.703Z,21.70
2019-03-31T10:30:50.598Z,22.30
2019-03-31T10:33:19.294Z,23.30
2019-03-31T10:35:48.336Z,24.40
2019-03-31T10:38:17.201Z,25.20
2019-03-31T10:40:46.123Z,25.90
2019-03-31T10:43:14.736Z,25.50
2019-03-31T10:45:43.527Z,25.60
2019-03-31T10:48:20.310Z,25.60
2019-03-31T10:50:42.555Z,25.80
2019-03-31T10:53:11.289Z,26.20
2019-03-31T10:55:39.917Z,26.00
2019-03-31T10:58:08.787Z,26.10
2019-03-31T11:00:44.174Z,26.00
2019-03-31T11:03:11.317Z,26.00
2019-03-31T11:05:40.044Z,26.10
2019-03-31T11:08:08.902Z,25.90
2019-03-31T11:10:37.715Z,26.00
2019-03-31T11:13:06.666Z,26.40
2019-03-31T11:15:35.425Z,26.10
2019-03-31T11:18:04.803Z,25.90
2019-03-31T11:20:33.498Z,25.90
2019-03-31T11:23:21.796Z,25.40
2019-03-31T11:25:50.709Z,25.50
2019-03-31T11:28:19.488Z,25.00
2019-03-31T11:30:48.141Z,25.20
2019-03-31T11:33:16.901Z,24.70
2019-03-31T11:35:45.754Z,24.90
2019-03-31T11:38:14.336Z,24.70
2019-03-31T11:40:43.091Z,24.30
2019-03-31T11:43:11.927Z,24.00
2019-03-31T11:45:40.839Z,23.60
2019-03-31T11:48:09.625Z,23.00
2019-03-31T11:50:38.303Z,22.30
2019-03-31T11:53:07.145Z,21.90
2019-03-31T11:55:35.760Z,21.50
2019-03-31T11:58:05.016Z,21.10
2019-03-31T12:00:35.547Z,20.60
2019-03-31T12:03:05.288Z,20.50
2019-03-31T12:05:34.035Z,20.50
2019-03-31T12:08:02.791Z,20.60
2019-03-31T12:10:31.512Z,20.40
2019-03-31T12:13:00.244Z,20.50
2019-03-31T12:15:28.857Z,20.60
2019-03-31T12:17:57.612Z,20.70
2019-03-31T12:20:26.469Z,20.50
2019-03-31T12:22:56.937Z,20.30
2019-03-31T12:25:26.846Z,20.20
2019-03-31T12:27:55.477Z,20.10
2019-03-31T12:30:27.911Z,20.20
2019-03-31T12:32:59.919Z,20.20
2019-03-31T12:35:28.693Z,20.20
2019-03-31T12:37:57.456Z,20.10
2019-03-31T12:40:31.341Z,20.30
2019-03-31T12:43:00.216Z,20.40
2019-03-31T12:45:28.790Z,20.50
2019-03-31T12:48:00.875Z,20.50
2019-03-31T12:50:28.032Z,20.50
2019-03-31T12:52:56.938Z,20.60
2019-03-31T12:55:25.726Z,20.60
2019-03-31T12:57:55.362Z,20.70
2019-03-31T13:00:24.110Z,20.60
2019-03-31T13:02:52.920Z,20.70
2019-03-31T13:05:21.642Z,20.60
2019-03-31T13:07:56.711Z,20.40
2019-03-31T13:10:23.015Z,20.40
2019-03-31T13:12:55.877Z,20.20
2019-03-31T13:15:24.046Z,20.10
2019-03-31T13:17:52.873Z,19.80
2019-03-31T13:20:22.007Z,19.50
2019-03-31T13:22:52.515Z,19.20
2019-03-31T13:25:21.258Z,18.80
2019-03-31T13:27:50.250Z,18.50
2019-03-31T13:30:22.439Z,18.40
2019-03-31T13:32:51.455Z,18.20
2019-03-31T13:35:24.322Z,18.00
2019-03-31T13:38:10.473Z,17.70
2019-03-31T13:40:32.371Z,17.70
2019-03-31T13:43:01.619Z,17.80
2019-03-31T13:45:30.586Z,18.10
2019-03-31T13:48:04.104Z,18.20
2019-03-31T13:50:33.030Z,18.40
2019-03-31T13:53:02.174Z,18.20
2019-03-31T13:55:30.820Z,17.90
2019-03-31T13:58:03.602Z,17.70
2019-03-31T14:00:38.911Z,17.60
2019-03-31T14:03:08.515Z,17.60
2019-03-31T14:05:37.433Z,17.70
2019-03-31T14:08:06.573Z,17.80
2019-03-31T14:10:35.467Z,17.70
2019-03-31T14:13:05.069Z,17.60
2019-03-31T14:15:33.889Z,17.40
2019-03-31T14:18:02.689Z,17.10
2019-03-31T14:20:31.551Z,16.90
2019-03-31T14:23:00.414Z,16.80
2019-03-31T14:25:29.373Z,16.70
2019-03-31T14:27:58.020Z,16.60
2019-03-31T14:30:26.684Z,16.60
2019-03-31T14:32:55.486Z,16.60
2019-03-31T14:35:24.404Z,16.60
2019-03-31T14:37:53.188Z,16.80
2019-03-31T14:40:21.915Z,16.80
2019-03-31T14:42:50.653Z,16.70
2019-03-31T14:45:33.255Z,16.70
2019-03-31T14:48:02.188Z,16.70
2019-03-31T14:50:33.260Z,16.50
2019-03-31T14:53:02.070Z,16.20
2019-03-31T14:55:31.096Z,16.00
2019-03-31T14:58:01.466Z,15.80
2019-03-31T15:00:30.203Z,15.60
2019-03-31T15:02:58.914Z,15.60
2019-03-31T15:05:27.726Z,15.60
2019-03-31T15:07:58.444Z,15.60
2019-03-31T15:10:28.484Z,15.60
2019-03-31T15:12:57.549Z,15.50
2019-03-31T15:15:26.420Z,15.50
2019-03-31T15:17:56.636Z,15.40
2019-03-31T15:20:25.861Z,15.50
2019-03-31T15:22:54.652Z,15.50
2019-03-31T15:25:26.454Z,15.20
2019-03-31T15:27:55.216Z,15.00
2019-03-31T15:30:26.815Z,14.80
2019-03-31T15:32:55.398Z,14.60
2019-03-31T15:35:24.516Z,14.50
2019-03-31T15:37:53.478Z,14.40
2019-03-31T15:40:22.253Z,14.20
2019-03-31T15:42:51.133Z,14.10
2019-03-31T15:45:19.738Z,13.90
2019-03-31T15:47:48.720Z,13.80
2019-03-31T15:50:17.861Z,13.80
2019-03-31T15:52:46.603Z,13.70
2019-03-31T15:55:15.484Z,13.60
2019-03-31T15:57:44.313Z,13.60
2019-03-31T16:00:13.927Z,13.50
2019-03-31T16:02:42.722Z,13.40
2019-03-31T16:05:12.851Z,13.40
2019-03-31T16:07:43.519Z,13.30
2019-03-31T16:10:12.445Z,13.20
2019-03-31T16:12:41.260Z,13.10
2019-03-31T16:15:14.147Z,13.00
2019-03-31T16:17:43.033Z,12.90
2019-03-31T16:20:12.090Z,12.70
2019-03-31T16:22:40.989Z,12.60
2019-03-31T16:25:28.662Z,12.50
2019-03-31T16:27:57.096Z,12.40
2019-03-31T16:30:26.004Z,12.30
2019-03-31T16:32:54.834Z,12.30
2019-03-31T16:35:23.866Z,12.20
2019-03-31T16:37:52.662Z,12.20
2019-03-31T16:40:21.616Z,12.10
2019-03-31T16:42:50.434Z,12.00
2019-03-31T16:45:19.153Z,11.90
2019-03-31T16:47:47.937Z,11.90
2019-03-31T16:50:17.157Z,11.90
2019-03-31T16:52:45.811Z,11.90
2019-03-31T16:55:14.714Z,11.90
2019-03-31T16:57:43.929Z,11.80
2019-03-31T17:00:13.613Z,11.70
2019-03-31T17:02:42.248Z,11.60
2019-03-31T17:05:21.652Z,11.50
2019-03-31T17:07:42.044Z,11.40
2019-03-31T17:10:18.699Z,11.40
2019-03-31T17:12:47.510Z,11.30
2019-03-31T17:15:16.421Z,11.20
2019-03-31T17:17:45.092Z,11.10
2019-03-31T17:20:14.481Z,11.10
2019-03-31T17:22:43.175Z,11.00
2019-03-31T17:25:12.356Z,11.00
2019-03-31T17:27:41.437Z,11.10
2019-03-31T17:30:10.884Z,11.10
2019-03-31T17:32:40.046Z,11.10
2019-03-31T17:35:08.905Z,11.00
2019-03-31T17:37:37.670Z,11.00
2019-03-31T17:40:08.316Z,10.90
2019-03-31T17:42:37.080Z,10.90
2019-03-31T17:45:07.359Z,10.80
2019-03-31T17:47:37.926Z,10.70
2019-03-31T17:50:06.933Z,10.70
2019-03-31T17:52:35.903Z,10.70
2019-03-31T17:55:07.627Z,10.60
2019-03-31T17:57:36.460Z,10.60
2019-03-31T18:00:10.101Z,10.50
2019-03-31T18:02:38.881Z,10.50
2019-03-31T18:05:09.199Z,10.40
2019-03-31T18:07:37.813Z,10.40
2019-03-31T18:10:19.975Z,10.50
2019-03-31T18:12:37.888Z,10.40
2019-03-31T18:15:07.358Z,10.40
2019-03-31T18:17:36.070Z,10.30
2019-03-31T18:20:06.389Z,10.30
2019-03-31T18:22:35.149Z,10.20
2019-03-31T18:25:05.097Z,10.20
2019-03-31T18:27:36.911Z,10.10
2019-03-31T18:30:06.884Z,10.10
2019-03-31T18:32:35.684Z,10.10
2019-03-31T18:35:06.327Z,10.10
2019-03-31T18:37:35.008Z,10.10
2019-03-31T18:40:04.996Z,10.00
2019-03-31T18:42:33.989Z,10.00
2019-03-31T18:45:02.685Z,9.90
2019-03-31T18:47:31.286Z,9.90
2019-03-31T18:50:00.051Z,9.80
2019-03-31T18:52:28.893Z,9.70
2019-03-31T18:55:02.288Z,9.70
2019-03-31T18:57:41.617Z,9.60
2019-03-31T19:00:12.627Z,9.50
2019-03-31T19:02:49.260Z,9.50
2019-03-31T19:05:35.793Z,9.40
2019-03-31T19:08:06.336Z,9.40
2019-03-31T19:10:48.856Z,9.30
2019-03-31T19:13:11.563Z,9.30
2019-03-31T19:15:50.710Z,9.30
2019-03-31T19:18:23.780Z,9.30
2019-03-31T19:21:11.726Z,9.30
2019-03-31T19:23:42.461Z,9.30
2019-03-31T19:26:21.777Z,9.30
2019-03-31T19:29:00.999Z,9.20
2019-03-31T19:31:37.594Z,9.20
2019-03-31T19:34:08.002Z,9.10
2019-03-31T19:36:41.338Z,9.00
2019-03-31T19:39:18.298Z,8.90
2019-03-31T19:42:02.964Z,8.80
2019-03-31T19:44:49.598Z,8.80
2019-03-31T19:47:28.739Z,8.80
2019-03-31T19:49:59.284Z,8.70
2019-03-31T19:52:38.689Z,8.70
2019-03-31T19:55:15.173Z,8.80
2019-03-31T19:57:51.066Z,8.80
2019-03-31T20:00:30.405Z,8.70
2019-03-31T20:03:06.540Z,8.60
2019-03-31T20:05:55.144Z,8.60
2019-03-31T20:08:42.306Z,8.50
2019-03-31T20:11:16.325Z,8.50
2019-03-31T20:13:46.663Z,8.30
2019-03-31T20:16:16.942Z,8.20
2019-03-31T20:18:47.217Z,8.10
2019-03-31T20:21:32.746Z,8.00
2019-03-31T20:24:03.003Z,7.90
2019-03-31T20:26:49.766Z,7.70
2019-03-31T20:29:23.084Z,7.50
2019-03-31T20:32:02.250Z,7.30
2019-03-31T20:34:32.702Z,7.20
2019-03-31T20:37:09.373Z,7.00
2019-03-31T20:39:56.411Z,6.90
2019-03-31T20:42:29.823Z,6.80
2019-03-31T20:44:58.496Z,6.70
2019-03-31T20:47:27.264Z,6.70
2019-03-31T20:49:57.564Z,6.70
2019-03-31T20:52:26.322Z,6.60
2019-03-31T20:55:15.574Z,6.60
2019-03-31T20:57:36.459Z,6.40
2019-03-31T21:00:08.034Z,6.30
2019-03-31T21:02:36.738Z,6.30
2019-03-31T21:05:07.808Z,6.30
2019-03-31T21:07:36.679Z,6.20
2019-03-31T21:10:07.335Z,6.20
2019-03-31T21:12:36.103Z,6.10
2019-03-31T21:15:06.999Z,6.00
2019-03-31T21:17:35.825Z,5.90
2019-03-31T21:20:06.022Z,5.90
2019-03-31T21:22:35.418Z,5.80
2019-03-31T21:25:07.882Z,5.80
2019-03-31T21:27:38.421Z,5.70
2019-03-31T21:30:07.840Z,5.70
2019-03-31T21:32:39.648Z,5.60
2019-03-31T21:35:11.765Z,5.60
2019-03-31T21:37:41.977Z,5.60
2019-03-31T21:40:12.642Z,5.60
2019-03-31T21:42:41.345Z,5.50
2019-03-31T21:45:13.822Z,5.50
2019-03-31T21:47:42.872Z,5.50
2019-03-31T21:50:16.583Z,5.40
2019-03-31T21:52:45.291Z,5.40
2019-03-31T21:55:14.336Z,5.40
2019-03-31T21:57:43.740Z,5.30
2019-03-31T22:00:16.367Z,5.20
2019-03-31T22:02:46.764Z,5.20
2019-03-31T22:05:15.642Z,5.20
2019-03-31T22:07:44.741Z,5.10
2019-03-31T22:10:13.933Z,5.10
2019-03-31T22:12:45.682Z,5.10
2019-03-31T22:15:17.670Z,5.00
2019-03-31T22:17:46.753Z,5.00
2019-03-31T22:20:18.139Z,5.00
2019-03-31T22:22:46.854Z,4.90
2019-03-31T22:25:18.779Z,4.80
2019-03-31T22:27:50.167Z,4.80
2019-03-31T22:30:18.868Z,4.90
2019-03-31T22:32:49.117Z,4.80
2019-03-31T22:35:17.776Z,4.80
2019-03-31T22:37:46.518Z,4.70
2019-03-31T22:40:15.252Z,4.60
2019-03-31T22:42:43.894Z,4.60
2019-03-31T22:45:12.718Z,4.60
2019-03-31T22:47:41.545Z,4.50
2019-03-31T22:50:10.498Z,4.50
2019-03-31T22:52:39.189Z,4.50
2019-03-31T22:55:07.850Z,4.40
2019-03-31T22:57:36.714Z,4.30
2019-03-31T23:00:08.576Z,4.30
2019-03-31T23:02:37.242Z,4.30
2019-03-31T23:05:06.027Z,4.30
2019-03-31T23:07:34.734Z,4.20
2019-03-31T23:10:04.274Z,4.30
2019-03-31T23:12:33.022Z,4.30
2019-03-31T23:15:01.708Z,4.30
2019-03-31T23:17:30.467Z,4.20
2019-03-31T23:19:59.113Z,4.20
2019-03-31T23:22:29.403Z,4.20
2019-03-31T23:24:58.101Z,4.20
2019-03-31T23:27:26.739Z,4.20
2019-03-31T23:29:55.392Z,4.10
2019-03-31T23:32:24.083Z,4.10
2019-03-31T23:34:52.919Z,4.00
2019-03-31T23:37:21.645Z,4.00
2019-03-31T23:39:50.243Z,4.00
2019-03-31T23:42:18.943Z,4.00
2019-03-31T23:44:47.879Z,4.00
2019-03-31T23:47:16.881Z,3.90
2019-03-31T23:49:54.017Z,4.00
2019-03-31T23:52:23.030Z,3.90
2019-03-31T23:54:52.914Z,3.90
2019-03-31T23:57:24.533Z,3.90
2019-03-31T23:59:56.969Z,3.90
